sensor_id;sensor_type;location;lat;lon;timestamp;temperature;humidity
50989;DHT22;37008;52.210;21.112;2022-07-18T00:01:36;12.40;90.20
50989;DHT22;37008;52.210;21.112;2022-07-18T00:04:02;12.30;90.40
50989;DHT22;37008;52.210;21.112;2022-07-18T00:06:28;12.30;90.50
50989;DHT22;37008;52.210;21.112;2022-07-18T00:08:54;12.20;90.80
50989;DHT22;37008;52.210;21.112;2022-07-18T00:11:20;12.20;90.90
50989;DHT22;37008;52.210;21.112;2022-07-18T00:13:46;12.20;91.10
50989;DHT22;37008;52.210;21.112;2022-07-18T00:16:12;12.10;91.30
50989;DHT22;37008;52.210;21.112;2022-07-18T00:18:38;12.10;91.50
50989;DHT22;37008;52.210;21.112;2022-07-18T00:21:04;12.00;91.80
50989;DHT22;37008;52.210;21.112;2022-07-18T00:23:29;11.90;92.10
50989;DHT22;37008;52.210;21.112;2022-07-18T00:25:55;11.80;92.30
50989;DHT22;37008;52.210;21.112;2022-07-18T00:28:21;11.80;92.80
50989;DHT22;37008;52.210;21.112;2022-07-18T00:30:46;11.70;93.00
50989;DHT22;37008;52.210;21.112;2022-07-18T00:33:12;11.60;93.40
50989;DHT22;37008;52.210;21.112;2022-07-18T00:35:38;11.50;93.70
50989;DHT22;37008;52.210;21.112;2022-07-18T00:38:03;11.50;94.00
50989;DHT22;37008;52.210;21.112;2022-07-18T00:40:30;11.40;94.20
50989;DHT22;37008;52.210;21.112;2022-07-18T00:42:56;11.50;94.40
50989;DHT22;37008;52.210;21.112;2022-07-18T00:45:22;11.50;94.40
50989;DHT22;37008;52.210;21.112;2022-07-18T00:47:47;11.50;94.50
50989;DHT22;37008;52.210;21.112;2022-07-18T00:50:16;11.50;94.60
50989;DHT22;37008;52.210;21.112;2022-07-18T00:52:42;11.60;94.70
50989;DHT22;37008;52.210;21.112;2022-07-18T00:55:08;11.60;94.70
50989;DHT22;37008;52.210;21.112;2022-07-18T00:57:34;11.60;94.80
50989;DHT22;37008;52.210;21.112;2022-07-18T01:00:00;11.70;94.90
50989;DHT22;37008;52.210;21.112;2022-07-18T01:02:46;11.60;94.90
50989;DHT22;37008;52.210;21.112;2022-07-18T01:05:11;11.70;94.80
50989;DHT22;37008;52.210;21.112;2022-07-18T01:07:37;11.70;94.90
50989;DHT22;37008;52.210;21.112;2022-07-18T01:10:04;11.80;94.80
50989;DHT22;37008;52.210;21.112;2022-07-18T01:12:31;11.80;94.80
50989;DHT22;37008;52.210;21.112;2022-07-18T01:14:57;11.80;94.90
50989;DHT22;37008;52.210;21.112;2022-07-18T01:17:23;11.80;94.80
50989;DHT22;37008;52.210;21.112;2022-07-18T01:19:49;11.80;94.80
50989;DHT22;37008;52.210;21.112;2022-07-18T01:22:16;11.80;94.90
50989;DHT22;37008;52.210;21.112;2022-07-18T01:24:43;11.80;94.90
50989;DHT22;37008;52.210;21.112;2022-07-18T01:27:13;11.80;95.00
50989;DHT22;37008;52.210;21.112;2022-07-18T01:29:38;11.70;95.10
50989;DHT22;37008;52.210;21.112;2022-07-18T01:32:06;11.80;95.20
50989;DHT22;37008;52.210;21.112;2022-07-18T01:34:32;11.70;95.20
50989;DHT22;37008;52.210;21.112;2022-07-18T01:36:58;11.70;95.30
50989;DHT22;37008;52.210;21.112;2022-07-18T01:39:23;11.70;95.40
50989;DHT22;37008;52.210;21.112;2022-07-18T01:42:00;11.70;95.50
50989;DHT22;37008;52.210;21.112;2022-07-18T01:44:27;11.70;95.60
50989;DHT22;37008;52.210;21.112;2022-07-18T01:46:53;11.70;95.50
50989;DHT22;37008;52.210;21.112;2022-07-18T01:49:19;11.70;95.60
50989;DHT22;37008;52.210;21.112;2022-07-18T01:51:50;11.70;95.60
50989;DHT22;37008;52.210;21.112;2022-07-18T01:54:19;11.80;95.70
50989;DHT22;37008;52.210;21.112;2022-07-18T01:56:45;11.80;95.70
50989;DHT22;37008;52.210;21.112;2022-07-18T01:59:11;11.80;95.60
50989;DHT22;37008;52.210;21.112;2022-07-18T02:01:36;11.80;95.70
50989;DHT22;37008;52.210;21.112;2022-07-18T02:04:02;11.80;95.70
50989;DHT22;37008;52.210;21.112;2022-07-18T02:06:28;11.80;95.60
50989;DHT22;37008;52.210;21.112;2022-07-18T02:08:53;11.80;95.60
50989;DHT22;37008;52.210;21.112;2022-07-18T02:11:19;11.80;95.70
50989;DHT22;37008;52.210;21.112;2022-07-18T02:13:44;11.70;95.70
50989;DHT22;37008;52.210;21.112;2022-07-18T02:16:10;11.70;95.70
50989;DHT22;37008;52.210;21.112;2022-07-18T02:18:36;11.60;95.80
50989;DHT22;37008;52.210;21.112;2022-07-18T02:21:02;11.60;96.00
50989;DHT22;37008;52.210;21.112;2022-07-18T02:23:28;11.60;96.20
50989;DHT22;37008;52.210;21.112;2022-07-18T02:25:54;11.60;96.30
50989;DHT22;37008;52.210;21.112;2022-07-18T02:28:21;11.60;96.30
50989;DHT22;37008;52.210;21.112;2022-07-18T02:30:46;11.60;96.30
50989;DHT22;37008;52.210;21.112;2022-07-18T02:33:14;11.60;96.30
50989;DHT22;37008;52.210;21.112;2022-07-18T02:35:39;11.60;96.30
50989;DHT22;37008;52.210;21.112;2022-07-18T02:38:05;11.60;96.30
50989;DHT22;37008;52.210;21.112;2022-07-18T02:40:31;11.60;96.30
50989;DHT22;37008;52.210;21.112;2022-07-18T02:42:56;11.50;96.40
50989;DHT22;37008;52.210;21.112;2022-07-18T02:45:22;11.50;96.50
50989;DHT22;37008;52.210;21.112;2022-07-18T02:47:47;11.50;96.60
50989;DHT22;37008;52.210;21.112;2022-07-18T02:50:13;11.50;96.70
50989;DHT22;37008;52.210;21.112;2022-07-18T02:52:40;11.50;96.70
50989;DHT22;37008;52.210;21.112;2022-07-18T02:55:06;11.50;96.70
50989;DHT22;37008;52.210;21.112;2022-07-18T02:57:32;11.50;96.80
50989;DHT22;37008;52.210;21.112;2022-07-18T02:59:58;11.50;96.80
50989;DHT22;37008;52.210;21.112;2022-07-18T03:02:24;11.60;96.80
50989;DHT22;37008;52.210;21.112;2022-07-18T03:04:49;11.60;96.80
50989;DHT22;37008;52.210;21.112;2022-07-18T03:07:15;11.60;96.80
50989;DHT22;37008;52.210;21.112;2022-07-18T03:09:41;11.60;96.80
50989;DHT22;37008;52.210;21.112;2022-07-18T03:12:06;11.70;96.80
50989;DHT22;37008;52.210;21.112;2022-07-18T03:14:33;11.70;96.80
50989;DHT22;37008;52.210;21.112;2022-07-18T03:16:58;11.70;96.70
50989;DHT22;37008;52.210;21.112;2022-07-18T03:19:24;11.80;96.60
50989;DHT22;37008;52.210;21.112;2022-07-18T03:21:50;11.90;96.50
50989;DHT22;37008;52.210;21.112;2022-07-18T03:24:15;11.90;96.30
50989;DHT22;37008;52.210;21.112;2022-07-18T03:26:42;12.00;96.10
50989;DHT22;37008;52.210;21.112;2022-07-18T03:29:09;12.10;96.00
50989;DHT22;37008;52.210;21.112;2022-07-18T03:31:35;12.10;95.80
50989;DHT22;37008;52.210;21.112;2022-07-18T03:34:01;12.20;95.80
50989;DHT22;37008;52.210;21.112;2022-07-18T03:36:26;12.20;95.70
50989;DHT22;37008;52.210;21.112;2022-07-18T03:38:52;12.30;95.70
50989;DHT22;37008;52.210;21.112;2022-07-18T03:41:18;12.30;95.60
50989;DHT22;37008;52.210;21.112;2022-07-18T03:43:43;12.40;95.60
50989;DHT22;37008;52.210;21.112;2022-07-18T03:46:09;12.40;95.40
50989;DHT22;37008;52.210;21.112;2022-07-18T03:48:35;12.40;95.50
50989;DHT22;37008;52.210;21.112;2022-07-18T03:51:02;12.50;95.90
50989;DHT22;37008;52.210;21.112;2022-07-18T03:53:27;12.60;95.90
50989;DHT22;37008;52.210;21.112;2022-07-18T03:55:53;12.80;96.30
50989;DHT22;37008;52.210;21.112;2022-07-18T03:58:19;13.20;96.30
50989;DHT22;37008;52.210;21.112;2022-07-18T04:00:44;13.60;95.70
50989;DHT22;37008;52.210;21.112;2022-07-18T04:03:10;14.00;94.80
50989;DHT22;37008;52.210;21.112;2022-07-18T04:05:36;14.30;93.40
50989;DHT22;37008;52.210;21.112;2022-07-18T04:08:01;14.50;92.30
50989;DHT22;37008;52.210;21.112;2022-07-18T04:10:27;14.60;91.40
50989;DHT22;37008;52.210;21.112;2022-07-18T04:12:54;14.60;90.80
50989;DHT22;37008;52.210;21.112;2022-07-18T04:15:22;14.50;90.30
50989;DHT22;37008;52.210;21.112;2022-07-18T04:17:48;14.50;90.00
50989;DHT22;37008;52.210;21.112;2022-07-18T04:20:18;14.40;89.30
50989;DHT22;37008;52.210;21.112;2022-07-18T04:22:51;14.40;88.80
50989;DHT22;37008;52.210;21.112;2022-07-18T04:25:18;14.30;88.40
50989;DHT22;37008;52.210;21.112;2022-07-18T04:27:45;14.30;88.10
50989;DHT22;37008;52.210;21.112;2022-07-18T04:30:10;14.20;87.90
50989;DHT22;37008;52.210;21.112;2022-07-18T04:32:37;14.20;87.90
50989;DHT22;37008;52.210;21.112;2022-07-18T04:35:04;14.20;88.10
50989;DHT22;37008;52.210;21.112;2022-07-18T04:37:30;14.10;88.50
50989;DHT22;37008;52.210;21.112;2022-07-18T04:40:00;14.10;88.90
50989;DHT22;37008;52.210;21.112;2022-07-18T04:42:26;14.10;89.10
50989;DHT22;37008;52.210;21.112;2022-07-18T04:44:52;14.20;89.40
50989;DHT22;37008;52.210;21.112;2022-07-18T04:47:18;14.20;89.60
50989;DHT22;37008;52.210;21.112;2022-07-18T04:49:43;14.30;89.40
50989;DHT22;37008;52.210;21.112;2022-07-18T04:52:09;14.40;89.20
50989;DHT22;37008;52.210;21.112;2022-07-18T04:54:35;14.50;88.70
50989;DHT22;37008;52.210;21.112;2022-07-18T04:57:01;14.50;88.30
50989;DHT22;37008;52.210;21.112;2022-07-18T04:59:26;14.70;88.00
50989;DHT22;37008;52.210;21.112;2022-07-18T05:01:52;14.70;87.60
50989;DHT22;37008;52.210;21.112;2022-07-18T05:04:18;14.80;87.40
50989;DHT22;37008;52.210;21.112;2022-07-18T05:06:43;14.90;87.00
50989;DHT22;37008;52.210;21.112;2022-07-18T05:09:09;15.00;86.40
50989;DHT22;37008;52.210;21.112;2022-07-18T05:11:35;15.10;85.90
50989;DHT22;37008;52.210;21.112;2022-07-18T05:14:00;15.20;85.00
50989;DHT22;37008;52.210;21.112;2022-07-18T05:16:26;15.30;84.30
50989;DHT22;37008;52.210;21.112;2022-07-18T05:18:52;15.40;84.00
50989;DHT22;37008;52.210;21.112;2022-07-18T05:21:17;15.50;83.60
50989;DHT22;37008;52.210;21.112;2022-07-18T05:23:43;15.70;83.10
50989;DHT22;37008;52.210;21.112;2022-07-18T05:26:11;15.70;82.60
50989;DHT22;37008;52.210;21.112;2022-07-18T05:28:36;15.80;81.70
50989;DHT22;37008;52.210;21.112;2022-07-18T05:31:02;15.80;80.90
50989;DHT22;37008;52.210;21.112;2022-07-18T05:33:28;15.90;80.20
50989;DHT22;37008;52.210;21.112;2022-07-18T05:35:54;16.00;79.70
50989;DHT22;37008;52.210;21.112;2022-07-18T05:38:19;16.10;79.40
50989;DHT22;37008;52.210;21.112;2022-07-18T05:40:45;16.10;78.10
50989;DHT22;37008;52.210;21.112;2022-07-18T05:43:11;16.20;77.90
50989;DHT22;37008;52.210;21.112;2022-07-18T05:45:36;16.20;78.70
50989;DHT22;37008;52.210;21.112;2022-07-18T05:48:02;16.30;78.30
50989;DHT22;37008;52.210;21.112;2022-07-18T05:50:28;16.50;77.60
50989;DHT22;37008;52.210;21.112;2022-07-18T05:52:54;16.70;77.30
50989;DHT22;37008;52.210;21.112;2022-07-18T05:55:20;16.80;76.70
50989;DHT22;37008;52.210;21.112;2022-07-18T05:57:46;16.90;74.80
50989;DHT22;37008;52.210;21.112;2022-07-18T06:00:12;17.10;74.40
50989;DHT22;37008;52.210;21.112;2022-07-18T06:02:38;17.30;74.00
50989;DHT22;37008;52.210;21.112;2022-07-18T06:05:05;17.40;73.40
50989;DHT22;37008;52.210;21.112;2022-07-18T06:07:31;17.50;73.60
50989;DHT22;37008;52.210;21.112;2022-07-18T06:09:57;17.60;73.10
50989;DHT22;37008;52.210;21.112;2022-07-18T06:12:23;17.80;72.10
50989;DHT22;37008;52.210;21.112;2022-07-18T06:14:49;17.80;71.20
50989;DHT22;37008;52.210;21.112;2022-07-18T06:17:14;17.80;70.90
50989;DHT22;37008;52.210;21.112;2022-07-18T06:19:40;17.90;71.00
50989;DHT22;37008;52.210;21.112;2022-07-18T06:22:07;18.00;70.60
50989;DHT22;37008;52.210;21.112;2022-07-18T06:24:33;18.10;70.70
50989;DHT22;37008;52.210;21.112;2022-07-18T06:26:59;18.20;70.30
50989;DHT22;37008;52.210;21.112;2022-07-18T06:29:25;18.30;70.30
50989;DHT22;37008;52.210;21.112;2022-07-18T06:31:50;18.40;70.70
50989;DHT22;37008;52.210;21.112;2022-07-18T06:34:16;18.40;70.20
50989;DHT22;37008;52.210;21.112;2022-07-18T06:36:41;18.50;69.50
50989;DHT22;37008;52.210;21.112;2022-07-18T06:39:07;18.50;69.00
50989;DHT22;37008;52.210;21.112;2022-07-18T06:41:39;18.50;68.50
50989;DHT22;37008;52.210;21.112;2022-07-18T06:44:06;18.40;68.40
50989;DHT22;37008;52.210;21.112;2022-07-18T06:46:31;18.40;68.60
50989;DHT22;37008;52.210;21.112;2022-07-18T06:48:57;18.40;68.90
50989;DHT22;37008;52.210;21.112;2022-07-18T06:51:23;18.30;69.50
50989;DHT22;37008;52.210;21.112;2022-07-18T06:53:50;18.40;70.20
50989;DHT22;37008;52.210;21.112;2022-07-18T06:56:16;18.40;69.60
50989;DHT22;37008;52.210;21.112;2022-07-18T06:58:42;18.30;69.10
50989;DHT22;37008;52.210;21.112;2022-07-18T07:01:08;18.30;69.50
50989;DHT22;37008;52.210;21.112;2022-07-18T07:03:33;18.20;69.70
50989;DHT22;37008;52.210;21.112;2022-07-18T07:05:59;18.10;69.40
50989;DHT22;37008;52.210;21.112;2022-07-18T07:08:25;18.10;69.80
50989;DHT22;37008;52.210;21.112;2022-07-18T07:10:50;18.00;70.20
50989;DHT22;37008;52.210;21.112;2022-07-18T07:13:16;17.90;70.60
50989;DHT22;37008;52.210;21.112;2022-07-18T07:15:41;18.00;71.00
50989;DHT22;37008;52.210;21.112;2022-07-18T07:18:08;18.10;70.70
50989;DHT22;37008;52.210;21.112;2022-07-18T07:20:34;18.10;70.60
50989;DHT22;37008;52.210;21.112;2022-07-18T07:23:00;18.30;70.30
50989;DHT22;37008;52.210;21.112;2022-07-18T07:25:30;18.30;69.60
50989;DHT22;37008;52.210;21.112;2022-07-18T07:27:56;18.40;69.30
50989;DHT22;37008;52.210;21.112;2022-07-18T07:30:21;18.50;69.10
50989;DHT22;37008;52.210;21.112;2022-07-18T07:32:47;18.50;68.60
50989;DHT22;37008;52.210;21.112;2022-07-18T07:35:15;18.50;68.70
50989;DHT22;37008;52.210;21.112;2022-07-18T07:37:43;18.50;69.00
50989;DHT22;37008;52.210;21.112;2022-07-18T07:40:09;18.50;68.60
50989;DHT22;37008;52.210;21.112;2022-07-18T07:42:35;18.60;68.40
50989;DHT22;37008;52.210;21.112;2022-07-18T07:45:01;18.50;68.20
50989;DHT22;37008;52.210;21.112;2022-07-18T07:47:27;18.50;68.40
50989;DHT22;37008;52.210;21.112;2022-07-18T07:49:54;18.50;68.50
50989;DHT22;37008;52.210;21.112;2022-07-18T07:52:20;18.40;68.70
50989;DHT22;37008;52.210;21.112;2022-07-18T07:54:46;18.30;68.80
50989;DHT22;37008;52.210;21.112;2022-07-18T07:57:11;18.40;69.40
50989;DHT22;37008;52.210;21.112;2022-07-18T07:59:37;18.50;70.10
50989;DHT22;37008;52.210;21.112;2022-07-18T08:02:03;18.70;70.30
50989;DHT22;37008;52.210;21.112;2022-07-18T08:04:29;18.70;69.70
50989;DHT22;37008;52.210;21.112;2022-07-18T08:06:55;18.80;69.40
50989;DHT22;37008;52.210;21.112;2022-07-18T08:09:21;18.80;69.40
50989;DHT22;37008;52.210;21.112;2022-07-18T08:11:46;18.80;69.50
50989;DHT22;37008;52.210;21.112;2022-07-18T08:14:12;18.80;69.70
50989;DHT22;37008;52.210;21.112;2022-07-18T08:16:38;18.90;69.70
50989;DHT22;37008;52.210;21.112;2022-07-18T08:19:04;19.10;69.70
50989;DHT22;37008;52.210;21.112;2022-07-18T08:21:29;19.20;69.70
50989;DHT22;37008;52.210;21.112;2022-07-18T08:23:55;19.30;69.00
50989;DHT22;37008;52.210;21.112;2022-07-18T08:26:21;19.50;68.40
50989;DHT22;37008;52.210;21.112;2022-07-18T08:28:46;19.70;67.80
50989;DHT22;37008;52.210;21.112;2022-07-18T08:31:13;19.80;67.10
50989;DHT22;37008;52.210;21.112;2022-07-18T08:33:39;19.80;66.90
50989;DHT22;37008;52.210;21.112;2022-07-18T08:36:05;19.80;67.20
50989;DHT22;37008;52.210;21.112;2022-07-18T08:38:30;20.00;66.50
50989;DHT22;37008;52.210;21.112;2022-07-18T08:40:56;19.90;65.70
50989;DHT22;37008;52.210;21.112;2022-07-18T08:43:25;20.00;65.60
50989;DHT22;37008;52.210;21.112;2022-07-18T08:45:54;20.10;65.40
50989;DHT22;37008;52.210;21.112;2022-07-18T08:48:21;20.20;65.80
50989;DHT22;37008;52.210;21.112;2022-07-18T08:50:47;20.50;65.60
50989;DHT22;37008;52.210;21.112;2022-07-18T08:53:14;20.70;64.80
50989;DHT22;37008;52.210;21.112;2022-07-18T08:55:41;20.90;63.70
50989;DHT22;37008;52.210;21.112;2022-07-18T08:58:06;21.10;63.00
50989;DHT22;37008;52.210;21.112;2022-07-18T09:00:34;21.20;62.10
50989;DHT22;37008;52.210;21.112;2022-07-18T09:03:01;21.30;61.50
50989;DHT22;37008;52.210;21.112;2022-07-18T09:05:28;21.30;61.00
50989;DHT22;37008;52.210;21.112;2022-07-18T09:08:15;21.20;61.10
50989;DHT22;37008;52.210;21.112;2022-07-18T09:10:56;21.20;61.80
50989;DHT22;37008;52.210;21.112;2022-07-18T09:13:24;21.20;62.20
50989;DHT22;37008;52.210;21.112;2022-07-18T09:16:10;21.20;62.90
50989;DHT22;37008;52.210;21.112;2022-07-18T09:18:43;21.30;62.50
50989;DHT22;37008;52.210;21.112;2022-07-18T09:21:14;21.30;61.80
50989;DHT22;37008;52.210;21.112;2022-07-18T09:23:52;21.30;61.80
50989;DHT22;37008;52.210;21.112;2022-07-18T09:26:39;21.30;60.80
50989;DHT22;37008;52.210;21.112;2022-07-18T09:29:05;21.30;60.40
50989;DHT22;37008;52.210;21.112;2022-07-18T09:31:31;21.20;60.70
50989;DHT22;37008;52.210;21.112;2022-07-18T09:33:59;21.10;61.30
50989;DHT22;37008;52.210;21.112;2022-07-18T09:36:26;21.10;61.50
50989;DHT22;37008;52.210;21.112;2022-07-18T09:38:52;21.00;61.70
50989;DHT22;37008;52.210;21.112;2022-07-18T09:41:26;21.10;61.90
50989;DHT22;37008;52.210;21.112;2022-07-18T09:43:52;21.20;61.40
50989;DHT22;37008;52.210;21.112;2022-07-18T09:46:18;21.10;60.90
50989;DHT22;37008;52.210;21.112;2022-07-18T09:48:44;21.10;61.50
50989;DHT22;37008;52.210;21.112;2022-07-18T09:51:10;21.10;61.90
50989;DHT22;37008;52.210;21.112;2022-07-18T09:53:41;21.10;61.80
50989;DHT22;37008;52.210;21.112;2022-07-18T09:56:12;21.20;61.80
50989;DHT22;37008;52.210;21.112;2022-07-18T09:58:53;21.20;60.90
50989;DHT22;37008;52.210;21.112;2022-07-18T10:01:19;21.20;59.90
50989;DHT22;37008;52.210;21.112;2022-07-18T10:03:45;21.40;59.90
50989;DHT22;37008;52.210;21.112;2022-07-18T10:06:11;21.60;60.10
50989;DHT22;37008;52.210;21.112;2022-07-18T10:08:38;21.80;59.60
50989;DHT22;37008;52.210;21.112;2022-07-18T10:11:06;21.80;58.90
50989;DHT22;37008;52.210;21.112;2022-07-18T10:13:34;21.90;58.80
50989;DHT22;37008;52.210;21.112;2022-07-18T10:16:00;22.10;58.60
50989;DHT22;37008;52.210;21.112;2022-07-18T10:18:28;22.10;58.10
50989;DHT22;37008;52.210;21.112;2022-07-18T10:20:58;22.20;58.80
50989;DHT22;37008;52.210;21.112;2022-07-18T10:23:31;22.30;58.00
50989;DHT22;37008;52.210;21.112;2022-07-18T10:31:36;22.50;57.20
50989;DHT22;37008;52.210;21.112;2022-07-18T10:36:34;22.40;56.30
50989;DHT22;37008;52.210;21.112;2022-07-18T10:39:10;22.20;56.50
50989;DHT22;37008;52.210;21.112;2022-07-18T11:00:24;22.30;57.70
50989;DHT22;37008;52.210;21.112;2022-07-18T11:03:06;22.40;57.30
50989;DHT22;37008;52.210;21.112;2022-07-18T11:05:33;22.60;57.50
50989;DHT22;37008;52.210;21.112;2022-07-18T11:18:27;23.30;54.90
50989;DHT22;37008;52.210;21.112;2022-07-18T11:20:55;23.40;55.50
50989;DHT22;37008;52.210;21.112;2022-07-18T11:23:23;23.60;54.80
50989;DHT22;37008;52.210;21.112;2022-07-18T11:25:52;23.60;53.60
50989;DHT22;37008;52.210;21.112;2022-07-18T11:28:20;23.60;53.50
50989;DHT22;37008;52.210;21.112;2022-07-18T11:31:02;23.30;53.80
50989;DHT22;37008;52.210;21.112;2022-07-18T11:33:30;23.10;54.50
50989;DHT22;37008;52.210;21.112;2022-07-18T11:36:27;23.00;54.80
50989;DHT22;37008;52.210;21.112;2022-07-18T11:38:56;22.90;55.60
50989;DHT22;37008;52.210;21.112;2022-07-18T11:41:22;22.70;55.20
50989;DHT22;37008;52.210;21.112;2022-07-18T11:43:49;22.50;55.30
50989;DHT22;37008;52.210;21.112;2022-07-18T11:46:18;22.40;55.70
50989;DHT22;37008;52.210;21.112;2022-07-18T11:48:47;22.30;55.90
50989;DHT22;37008;52.210;21.112;2022-07-18T11:51:18;22.20;56.40
50989;DHT22;37008;52.210;21.112;2022-07-18T11:53:49;22.10;56.90
50989;DHT22;37008;52.210;21.112;2022-07-18T11:56:16;22.20;56.70
50989;DHT22;37008;52.210;21.112;2022-07-18T11:58:44;22.20;56.80
50989;DHT22;37008;52.210;21.112;2022-07-18T12:01:10;22.40;56.70
50989;DHT22;37008;52.210;21.112;2022-07-18T12:03:39;22.60;56.30
50989;DHT22;37008;52.210;21.112;2022-07-18T12:06:18;22.70;56.10
50989;DHT22;37008;52.210;21.112;2022-07-18T12:08:49;23.00;56.00
50989;DHT22;37008;52.210;21.112;2022-07-18T12:13:45;23.30;54.80
50989;DHT22;37008;52.210;21.112;2022-07-18T12:19:05;23.40;54.70
50989;DHT22;37008;52.210;21.112;2022-07-18T12:21:43;23.50;54.40
50989;DHT22;37008;52.210;21.112;2022-07-18T12:24:23;23.60;54.20
50989;DHT22;37008;52.210;21.112;2022-07-18T12:26:56;23.80;53.80
50989;DHT22;37008;52.210;21.112;2022-07-18T12:29:22;24.10;53.50
50989;DHT22;37008;52.210;21.112;2022-07-18T12:31:47;24.40;52.70
50989;DHT22;37008;52.210;21.112;2022-07-18T12:34:15;24.60;52.60
50989;DHT22;37008;52.210;21.112;2022-07-18T12:36:55;24.70;51.10
50989;DHT22;37008;52.210;21.112;2022-07-18T12:39:32;24.60;50.70
50989;DHT22;37008;52.210;21.112;2022-07-18T12:41:59;24.50;50.70
50989;DHT22;37008;52.210;21.112;2022-07-18T12:44:28;24.30;51.10
50989;DHT22;37008;52.210;21.112;2022-07-18T12:46:55;24.20;51.70
50989;DHT22;37008;52.210;21.112;2022-07-18T12:49:21;24.10;52.20
50989;DHT22;37008;52.210;21.112;2022-07-18T12:51:47;24.00;52.30
50989;DHT22;37008;52.210;21.112;2022-07-18T12:54:15;23.90;52.20
50989;DHT22;37008;52.210;21.112;2022-07-18T12:56:41;23.90;52.00
50989;DHT22;37008;52.210;21.112;2022-07-18T12:59:08;23.80;52.20
50989;DHT22;37008;52.210;21.112;2022-07-18T13:01:34;23.90;52.60
50989;DHT22;37008;52.210;21.112;2022-07-18T13:03:59;23.90;52.90
50989;DHT22;37008;52.210;21.112;2022-07-18T13:06:25;23.90;53.30
50989;DHT22;37008;52.210;21.112;2022-07-18T13:08:51;23.90;53.40
50989;DHT22;37008;52.210;21.112;2022-07-18T13:11:16;24.20;54.30
50989;DHT22;37008;52.210;21.112;2022-07-18T13:13:42;24.50;53.50
50989;DHT22;37008;52.210;21.112;2022-07-18T13:16:07;24.80;52.80
50989;DHT22;37008;52.210;21.112;2022-07-18T13:18:33;24.90;50.90
50989;DHT22;37008;52.210;21.112;2022-07-18T13:20:59;24.80;50.40
50989;DHT22;37008;52.210;21.112;2022-07-18T13:23:24;24.80;50.80
50989;DHT22;37008;52.210;21.112;2022-07-18T13:25:50;24.80;50.70
50989;DHT22;37008;52.210;21.112;2022-07-18T13:28:15;24.90;50.30
50989;DHT22;37008;52.210;21.112;2022-07-18T13:30:41;24.80;50.40
50989;DHT22;37008;52.210;21.112;2022-07-18T13:33:07;24.90;50.20
50989;DHT22;37008;52.210;21.112;2022-07-18T13:35:33;24.80;50.00
50989;DHT22;37008;52.210;21.112;2022-07-18T13:37:59;24.70;50.40
50989;DHT22;37008;52.210;21.112;2022-07-18T13:40:25;24.60;50.20
50989;DHT22;37008;52.210;21.112;2022-07-18T13:42:51;24.50;50.50
50989;DHT22;37008;52.210;21.112;2022-07-18T13:45:16;24.40;50.70
50989;DHT22;37008;52.210;21.112;2022-07-18T13:47:43;24.50;50.70
50989;DHT22;37008;52.210;21.112;2022-07-18T13:50:10;24.50;50.40
50989;DHT22;37008;52.210;21.112;2022-07-18T13:52:36;24.50;50.40
50989;DHT22;37008;52.210;21.112;2022-07-18T13:55:02;24.60;50.30
50989;DHT22;37008;52.210;21.112;2022-07-18T13:57:27;24.60;50.70
50989;DHT22;37008;52.210;21.112;2022-07-18T13:59:53;24.50;50.80
50989;DHT22;37008;52.210;21.112;2022-07-18T14:02:19;24.50;51.70
50989;DHT22;37008;52.210;21.112;2022-07-18T14:04:44;24.60;51.50
50989;DHT22;37008;52.210;21.112;2022-07-18T14:07:10;24.90;50.40
50989;DHT22;37008;52.210;21.112;2022-07-18T14:09:37;25.60;49.00
50989;DHT22;37008;52.210;21.112;2022-07-18T14:12:04;26.10;47.90
50989;DHT22;37008;52.210;21.112;2022-07-18T14:14:29;26.10;47.90
50989;DHT22;37008;52.210;21.112;2022-07-18T14:16:55;26.40;48.10
50989;DHT22;37008;52.210;21.112;2022-07-18T14:19:21;26.60;47.20
50989;DHT22;37008;52.210;21.112;2022-07-18T14:21:47;26.90;45.90
50989;DHT22;37008;52.210;21.112;2022-07-18T14:24:13;27.40;44.40
50989;DHT22;37008;52.210;21.112;2022-07-18T14:26:38;27.70;43.20
50989;DHT22;37008;52.210;21.112;2022-07-18T14:29:04;27.40;43.00
50989;DHT22;37008;52.210;21.112;2022-07-18T14:31:30;27.90;43.40
50989;DHT22;37008;52.210;21.112;2022-07-18T14:33:55;28.70;42.70
50989;DHT22;37008;52.210;21.112;2022-07-18T14:36:21;29.60;41.30
50989;DHT22;37008;52.210;21.112;2022-07-18T14:38:47;30.00;38.50
50989;DHT22;37008;52.210;21.112;2022-07-18T14:41:12;30.10;38.10
50989;DHT22;37008;52.210;21.112;2022-07-18T14:43:38;30.60;37.60
50989;DHT22;37008;52.210;21.112;2022-07-18T14:46:04;30.80;36.50
50989;DHT22;37008;52.210;21.112;2022-07-18T14:48:29;30.60;36.30
50989;DHT22;37008;52.210;21.112;2022-07-18T14:50:55;30.30;36.40
50989;DHT22;37008;52.210;21.112;2022-07-18T14:53:21;30.20;36.20
50989;DHT22;37008;52.210;21.112;2022-07-18T14:55:46;30.20;36.40
50989;DHT22;37008;52.210;21.112;2022-07-18T14:58:12;30.20;36.10
50989;DHT22;37008;52.210;21.112;2022-07-18T15:00:38;29.80;36.30
50989;DHT22;37008;52.210;21.112;2022-07-18T15:03:04;29.90;36.70
50989;DHT22;37008;52.210;21.112;2022-07-18T15:05:29;30.50;37.40
50989;DHT22;37008;52.210;21.112;2022-07-18T15:07:55;31.20;36.10
50989;DHT22;37008;52.210;21.112;2022-07-18T15:10:20;31.20;35.30
50989;DHT22;37008;52.210;21.112;2022-07-18T15:12:46;31.40;35.10
50989;DHT22;37008;52.210;21.112;2022-07-18T15:15:12;31.40;33.90
50989;DHT22;37008;52.210;21.112;2022-07-18T15:17:37;31.30;33.60
50989;DHT22;37008;52.210;21.112;2022-07-18T15:20:04;30.80;34.10
50989;DHT22;37008;52.210;21.112;2022-07-18T15:22:30;30.80;34.40
50989;DHT22;37008;52.210;21.112;2022-07-18T15:24:56;30.80;34.20
50989;DHT22;37008;52.210;21.112;2022-07-18T15:27:22;30.20;34.10
50989;DHT22;37008;52.210;21.112;2022-07-18T15:29:47;29.20;35.60
50989;DHT22;37008;52.210;21.112;2022-07-18T15:32:13;29.20;36.20
50989;DHT22;37008;52.210;21.112;2022-07-18T15:34:39;29.40;36.20
50989;DHT22;37008;52.210;21.112;2022-07-18T15:37:05;29.00;36.40
50989;DHT22;37008;52.210;21.112;2022-07-18T15:39:31;28.40;36.90
50989;DHT22;37008;52.210;21.112;2022-07-18T15:41:58;28.00;37.90
50989;DHT22;37008;52.210;21.112;2022-07-18T15:44:24;27.90;38.60
50989;DHT22;37008;52.210;21.112;2022-07-18T15:46:49;27.90;38.90
50989;DHT22;37008;52.210;21.112;2022-07-18T15:49:15;27.60;38.80
50989;DHT22;37008;52.210;21.112;2022-07-18T15:51:41;27.60;38.90
50989;DHT22;37008;52.210;21.112;2022-07-18T15:54:08;27.70;38.50
50989;DHT22;37008;52.210;21.112;2022-07-18T15:56:34;27.80;38.90